Time;durP1;ratioP1;P1;durP2;ratioP2;P2;SDS_P1;SDS_P2;PMS_P1;PMS_P2;Temp;Humidity;BMP_temperature;BMP_pressure;BME280_temperature;BME280_humidity;BME280_pressure;Samples;Min_cycle;Max_cycle;Signal;HPM_P1;HPM_P2
2020/12/23 00:01:48;;;;;;;1.75;0.60;;;14.30;94.50;;;;;;4992557;28;20070;-87
2020/12/23 00:04:14;;;;;;;1.52;0.60;;;14.40;94.20;;;;;;4999535;28;20069;-88
2020/12/23 00:06:41;;;;;;;1.52;0.60;;;14.40;94.10;;;;;;5001666;28;20097;-88
2020/12/23 00:09:09;;;;;;;1.58;0.68;;;14.40;94.20;;;;;;5004622;28;20051;-88
2020/12/23 00:11:35;;;;;;;1.27;0.57;;;14.40;94.10;;;;;;5006260;28;20053;-88
2020/12/23 00:14:02;;;;;;;2.22;0.82;;;14.40;94.10;;;;;;5005131;28;20137;-88
2020/12/23 00:16:28;;;;;;;2.22;0.80;;;14.30;94.10;;;;;;5004899;28;20046;-88
2020/12/23 00:18:55;;;;;;;3.22;0.80;;;14.30;94.20;;;;;;4998768;28;20082;-87
2020/12/23 00:21:22;;;;;;;1.17;0.52;;;14.30;94.10;;;;;;4994072;28;20468;-88
2020/12/23 00:23:48;;;;;;;2.30;0.70;;;14.40;94.00;;;;;;4994550;28;20080;-87
2020/12/23 00:26:16;;;;;;;1.90;0.70;;;14.30;94.10;;;;;;4994911;28;20138;-87
2020/12/23 00:28:42;;;;;;;1.40;0.63;;;14.40;94.10;;;;;;5003990;28;20062;-87
2020/12/23 00:31:09;;;;;;;1.83;0.70;;;14.30;94.20;;;;;;5009621;28;20050;-86
2020/12/23 00:33:36;;;;;;;1.98;0.75;;;14.30;94.10;;;;;;4992868;28;20173;-87
2020/12/23 00:36:02;;;;;;;1.70;0.70;;;14.30;94.10;;;;;;4993910;28;20065;-86
2020/12/23 00:38:29;;;;;;;1.48;0.43;;;14.40;94.00;;;;;;4993802;28;20516;-87
2020/12/23 00:40:55;;;;;;;1.98;0.50;;;14.30;94.10;;;;;;4993253;28;20381;-87
2020/12/23 00:43:23;;;;;;;1.67;0.60;;;14.30;94.10;;;;;;4993960;28;20141;-86
2020/12/23 00:45:49;;;;;;;3.78;0.80;;;14.40;93.90;;;;;;4993720;28;20093;-87
2020/12/23 00:48:16;;;;;;;1.63;0.68;;;14.40;94.00;;;;;;4994317;28;20074;-89
2020/12/23 00:50:42;;;;;;;2.38;0.85;;;14.30;94.30;;;;;;4994593;28;20089;-88
2020/12/23 00:53:10;;;;;;;1.58;0.70;;;14.30;94.10;;;;;;4994565;28;20089;-90
2020/12/23 00:55:36;;;;;;;2.42;0.60;;;14.30;94.20;;;;;;4998032;28;20461;-90
2020/12/23 00:58:03;;;;;;;1.67;0.70;;;14.30;94.30;;;;;;5003755;28;20077;-86
2020/12/23 01:00:31;;;;;;;1.30;0.52;;;14.40;94.00;;;;;;5003536;28;20133;-86
2020/12/23 01:02:57;;;;;;;1.58;0.60;;;14.40;93.80;;;;;;4998859;28;20133;-85
2020/12/23 01:05:24;;;;;;;1.83;0.63;;;14.40;93.80;;;;;;4998336;28;20054;-86
2020/12/23 01:07:50;;;;;;;1.55;0.60;;;14.40;93.80;;;;;;4998422;28;20141;-86
2020/12/23 01:10:17;;;;;;;1.13;0.52;;;14.40;93.90;;;;;;4998140;28;20657;-85
2020/12/23 01:12:43;;;;;;;1.48;0.60;;;14.40;93.80;;;;;;4998766;28;20184;-85
2020/12/23 01:15:10;;;;;;;1.42;0.52;;;14.40;93.80;;;;;;4998867;28;20133;-85
2020/12/23 01:17:37;;;;;;;1.35;0.50;;;14.40;93.80;;;;;;5008062;28;20101;-86
2020/12/23 01:20:04;;;;;;;1.13;0.50;;;14.40;93.70;;;;;;5000912;28;20106;-87
2020/12/23 01:22:31;;;;;;;1.45;0.77;;;14.40;93.70;;;;;;5009223;28;20204;-87
2020/12/23 01:24:58;;;;;;;1.65;0.60;;;14.40;93.80;;;;;;5001088;28;20070;-88
2020/12/23 01:27:24;;;;;;;1.17;0.40;;;14.40;93.80;;;;;;4997935;28;20046;-87
2020/12/23 01:29:51;;;;;;;2.30;0.63;;;14.40;93.70;;;;;;4997222;28;20054;-87
2020/12/23 01:32:17;;;;;;;1.27;0.57;;;14.50;93.70;;;;;;4996988;28;20057;-84
2020/12/23 01:34:45;;;;;;;1.15;0.50;;;14.50;93.90;;;;;;4996546;28;20050;-87
2020/12/23 01:37:11;;;;;;;2.22;0.90;;;14.40;94.10;;;;;;4997010;28;20548;-87
2020/12/23 01:39:38;;;;;;;1.60;0.60;;;14.50;93.70;;;;;;4996901;28;20492;-87
2020/12/23 01:42:05;;;;;;;1.58;0.70;;;14.50;93.70;;;;;;4996866;28;20547;-87
2020/12/23 01:44:31;;;;;;;1.40;0.57;;;14.50;93.70;;;;;;4997035;28;20475;-87
2020/12/23 01:47:00;;;;;;;1.58;0.60;;;14.50;93.70;;;;;;4996287;28;20382;-88
2020/12/23 01:49:26;;;;;;;1.27;0.60;;;14.40;93.80;;;;;;4996592;28;20410;-87
2020/12/23 01:51:54;;;;;;;1.00;0.50;;;14.50;93.70;;;;;;4995910;28;20145;-88
2020/12/23 01:54:21;;;;;;;0.95;0.40;;;14.40;93.80;;;;;;4996678;28;20133;-85
2020/12/23 01:56:47;;;;;;;2.15;0.60;;;14.40;93.80;;;;;;4996257;28;20385;-85
2020/12/23 01:59:14;;;;;;;2.60;0.70;;;14.50;94.00;;;;;;4996240;28;20046;-86
2020/12/23 02:01:46;;;;;;;0.88;0.40;;;14.50;93.60;;;;;;4996435;28;20373;-87
2020/12/23 02:04:15;;;;;;;1.38;0.60;;;14.50;93.60;;;;;;4996760;28;20675;-86
2020/12/23 02:06:42;;;;;;;1.30;0.60;;;14.60;93.60;;;;;;4996263;28;20488;-86
2020/12/23 02:09:10;;;;;;;1.52;0.50;;;14.50;93.60;;;;;;5003658;28;20080;-87
2020/12/23 02:11:37;;;;;;;1.90;0.70;;;14.50;93.80;;;;;;4998458;28;20054;-87
2020/12/23 02:14:04;;;;;;;2.92;0.93;;;14.50;93.90;;;;;;4973882;28;20053;-87
2020/12/23 02:16:30;;;;;;;1.30;0.60;;;14.50;93.90;;;;;;4998456;28;20554;-85
2020/12/23 02:18:57;;;;;;;0.77;0.40;;;14.40;93.80;;;;;;4996089;28;20073;-85
2020/12/23 02:21:24;;;;;;;1.02;0.47;;;14.50;93.80;;;;;;4996101;28;20169;-88
2020/12/23 02:23:52;;;;;;;1.33;0.50;;;14.40;93.70;;;;;;4996647;28;20069;-88
2020/12/23 02:26:19;;;;;;;1.45;0.50;;;14.40;93.80;;;;;;4996651;28;20078;-86
2020/12/23 02:28:46;;;;;;;1.50;0.60;;;14.50;93.80;;;;;;4978806;28;20060;-86
2020/12/23 02:31:13;;;;;;;1.77;0.60;;;14.50;93.80;;;;;;4996984;28;20129;-85
2020/12/23 02:33:40;;;;;;;2.42;0.50;;;14.50;93.70;;;;;;4965918;28;20050;-86
2020/12/23 02:36:06;;;;;;;1.13;0.50;;;14.50;93.70;;;;;;5006253;28;20066;-86
2020/12/23 02:38:33;;;;;;;1.25;0.43;;;14.50;93.70;;;;;;4988568;28;20100;-86
2020/12/23 02:41:01;;;;;;;1.70;0.57;;;14.40;94.10;;;;;;5005678;28;20173;-85
2020/12/23 02:43:27;;;;;;;1.27;0.47;;;14.50;93.80;;;;;;4989342;28;20077;-86
2020/12/23 02:45:54;;;;;;;1.13;0.57;;;14.50;93.80;;;;;;4988383;28;20082;-86
2020/12/23 02:48:21;;;;;;;0.98;0.40;;;14.40;93.80;;;;;;5002609;28;20145;-85
2020/12/23 02:50:47;;;;;;;1.70;0.90;;;14.40;93.80;;;;;;4983023;28;20137;-87
2020/12/23 02:53:15;;;;;;;1.33;0.55;;;14.30;93.80;;;;;;5003312;28;20563;-86
2020/12/23 02:55:41;;;;;;;1.45;0.57;;;14.30;93.80;;;;;;4987944;28;20105;-88
2020/12/23 02:58:09;;;;;;;1.92;0.60;;;14.40;93.80;;;;;;4995647;28;20520;-86
2020/12/23 03:00:35;;;;;;;1.20;0.47;;;14.40;93.70;;;;;;4998498;28;20132;-86
2020/12/23 03:03:02;;;;;;;1.30;0.50;;;14.40;94.00;;;;;;4997959;28;20125;-86
2020/12/23 03:05:29;;;;;;;1.13;0.50;;;14.50;93.60;;;;;;4995223;28;20492;-85
2020/12/23 03:07:55;;;;;;;1.20;0.55;;;14.50;93.50;;;;;;4977948;28;20568;-85
2020/12/23 03:10:22;;;;;;;0.98;0.47;;;14.40;93.50;;;;;;4994462;28;20046;-85
2020/12/23 03:12:48;;;;;;;1.05;0.55;;;14.50;93.50;;;;;;4994596;28;20057;-86
2020/12/23 03:15:16;;;;;;;1.75;0.50;;;14.50;93.50;;;;;;4995178;28;20081;-85
2020/12/23 03:17:42;;;;;;;2.13;0.50;;;14.50;93.50;;;;;;4994871;28;20404;-85
2020/12/23 03:20:09;;;;;;;2.65;0.60;;;14.50;93.40;;;;;;4994879;28;20409;-85
2020/12/23 03:22:35;;;;;;;0.80;0.40;;;14.40;93.50;;;;;;4995066;28;20046;-85
2020/12/23 03:25:02;;;;;;;1.38;0.70;;;14.50;93.50;;;;;;4994357;28;20056;-85
2020/12/23 03:27:29;;;;;;;0.90;0.60;;;14.50;93.50;;;;;;4994890;28;20136;-85
2020/12/23 03:29:55;;;;;;;1.45;0.60;;;14.40;93.50;;;;;;4994648;28;20145;-85
2020/12/23 03:32:23;;;;;;;1.25;0.60;;;14.40;93.60;;;;;;4994691;28;20133;-85
2020/12/23 03:34:49;;;;;;;1.15;0.40;;;14.40;93.70;;;;;;4994469;28;20096;-85
2020/12/23 03:37:16;;;;;;;1.58;0.63;;;14.30;93.60;;;;;;4994395;28;20125;-86
2020/12/23 03:39:42;;;;;;;1.25;0.50;;;14.40;93.60;;;;;;4994793;28;20056;-86
2020/12/23 03:42:09;;;;;;;1.52;0.43;;;14.40;93.60;;;;;;4994872;28;20544;-87
2020/12/23 03:44:36;;;;;;;0.73;0.47;;;14.50;93.50;;;;;;5010700;28;20141;-84
2020/12/23 03:47:02;;;;;;;1.08;0.52;;;14.40;93.50;;;;;;5010532;28;20403;-85
2020/12/23 03:49:30;;;;;;;2.10;0.68;;;14.50;93.80;;;;;;4994758;28;20535;-86
2020/12/23 03:51:57;;;;;;;1.42;0.60;;;14.40;93.50;;;;;;4969102;28;20510;-89
2020/12/23 03:54:23;;;;;;;1.23;0.50;;;14.40;93.50;;;;;;4995128;28;20058;-89
2020/12/23 03:56:50;;;;;;;0.90;0.50;;;14.50;93.50;;;;;;4995117;28;20134;-87
2020/12/23 03:59:16;;;;;;;1.27;0.50;;;14.40;93.50;;;;;;4995749;28;20045;-87
2020/12/23 04:01:43;;;;;;;1.30;0.50;;;14.50;93.50;;;;;;4995528;28;20081;-88
2020/12/23 04:04:09;;;;;;;0.95;0.50;;;14.50;93.40;;;;;;4996074;28;20137;-87
2020/12/23 04:06:37;;;;;;;1.00;0.50;;;14.50;93.30;;;;;;4993910;28;20065;-88
2020/12/23 04:09:04;;;;;;;1.80;0.60;;;14.50;93.30;;;;;;4994492;28;20054;-88
2020/12/23 04:11:30;;;;;;;1.02;0.47;;;14.60;93.30;;;;;;4993620;28;20495;-87
2020/12/23 04:13:57;;;;;;;1.23;0.50;;;14.60;93.20;;;;;;4994746;28;20134;-87
2020/12/23 04:16:24;;;;;;;2.30;0.50;;;14.60;93.20;;;;;;4994266;28;20137;-88
2020/12/23 04:18:50;;;;;;;1.20;0.50;;;14.60;93.40;;;;;;4994320;28;20149;-88
2020/12/23 04:21:17;;;;;;;1.77;0.50;;;14.60;93.30;;;;;;5001812;28;20188;-88
2020/12/23 04:23:45;;;;;;;1.30;0.50;;;14.60;93.30;;;;;;5005266;28;20081;-88
2020/12/23 04:26:11;;;;;;;1.58;0.70;;;14.60;93.40;;;;;;4999028;28;20129;-88
2020/12/23 04:28:38;;;;;;;1.10;0.60;;;14.60;93.40;;;;;;4994194;28;20129;-89
2020/12/23 04:31:04;;;;;;;1.90;0.60;;;14.50;93.40;;;;;;4978453;28;20560;-87
2020/12/23 04:33:31;;;;;;;1.55;0.70;;;14.60;93.50;;;;;;4994017;28;20053;-87
2020/12/23 04:35:58;;;;;;;0.77;0.35;;;14.60;93.50;;;;;;4993612;28;20137;-88
2020/12/23 04:38:24;;;;;;;1.20;0.57;;;14.60;93.60;;;;;;4994195;28;20133;-88
2020/12/23 04:40:52;;;;;;;1.90;0.55;;;14.60;93.80;;;;;;4994299;28;20060;-89
2020/12/23 04:43:20;;;;;;;1.48;0.70;;;14.60;93.60;;;;;;4994281;28;20042;-88
2020/12/23 04:45:47;;;;;;;2.67;0.70;;;14.60;93.60;;;;;;4993144;28;20124;-88
2020/12/23 04:48:21;;;;;;;1.35;0.60;;;14.50;93.70;;;;;;4994651;28;20050;-88
2020/12/23 04:50:54;;;;;;;2.05;0.75;;;14.40;93.90;;;;;;4993796;28;20133;-88
2020/12/23 04:53:21;;;;;;;2.08;0.60;;;14.40;94.00;;;;;;4993011;28;20046;-88
2020/12/23 04:55:47;;;;;;;1.58;0.60;;;14.40;94.30;;;;;;4993696;28;20511;-88
2020/12/23 04:58:16;;;;;;;1.88;0.50;;;14.40;94.10;;;;;;4993883;28;20085;-89
2020/12/23 05:00:42;;;;;;;1.30;0.50;;;14.30;94.10;;;;;;4977088;28;20054;-90
2020/12/23 05:03:10;;;;;;;1.05;0.50;;;14.30;94.20;;;;;;4995303;28;20061;-88
2020/12/23 05:05:36;;;;;;;1.25;0.60;;;14.30;94.30;;;;;;4961058;28;20129;-88
2020/12/23 05:08:04;;;;;;;1.17;0.50;;;14.30;94.20;;;;;;4976866;28;20150;-89
2020/12/23 05:10:30;;;;;;;1.30;0.55;;;14.30;94.40;;;;;;4993533;28;20141;-88
2020/12/23 05:12:57;;;;;;;2.25;0.68;;;14.20;94.40;;;;;;4993602;28;20492;-88
2020/12/23 05:15:25;;;;;;;1.50;0.60;;;14.20;94.50;;;;;;4994047;28;20516;-89
2020/12/23 05:17:52;;;;;;;1.08;0.50;;;14.20;94.40;;;;;;4994213;28;20053;-88
2020/12/23 05:20:19;;;;;;;2.47;0.60;;;14.30;94.40;;;;;;4993588;28;20137;-88
2020/12/23 05:22:49;;;;;;;2.15;0.60;;;14.20;94.40;;;;;;4993181;28;20129;-88
2020/12/23 05:25:18;;;;;;;2.15;0.60;;;14.20;94.50;;;;;;4994100;28;20047;-88
2020/12/23 05:27:48;;;;;;;1.38;0.52;;;14.20;94.50;;;;;;4993321;28;20144;-88
2020/12/23 05:30:15;;;;;;;1.23;0.65;;;14.20;94.50;;;;;;4994093;28;20178;-89
2020/12/23 05:32:45;;;;;;;1.13;0.60;;;14.20;94.50;;;;;;4976883;28;20129;-88
2020/12/23 05:35:15;;;;;;;1.63;0.65;;;14.20;94.50;;;;;;4993442;28;20492;-88
2020/12/23 05:37:42;;;;;;;0.90;0.50;;;14.20;94.30;;;;;;4994045;28;20137;-89
2020/12/23 05:40:09;;;;;;;1.15;0.50;;;14.20;94.20;;;;;;4993508;28;20054;-88
2020/12/23 05:42:39;;;;;;;2.35;0.70;;;14.20;94.20;;;;;;4976701;28;20141;-87
2020/12/23 05:45:08;;;;;;;1.50;0.70;;;14.20;94.10;;;;;;4978407;28;20107;-87
2020/12/23 05:47:36;;;;;;;1.83;0.70;;;14.20;94.10;;;;;;4995353;28;20046;-90
2020/12/23 05:50:10;;;;;;;1.65;0.57;;;14.20;94.10;;;;;;4997419;28;20061;-88
2020/12/23 05:52:37;;;;;;;1.85;0.75;;;14.20;94.10;;;;;;4992651;28;20058;-89
2020/12/23 05:55:16;;;;;;;2.17;0.80;;;14.20;94.30;;;;;;4997221;28;20136;-88
2020/12/23 05:57:43;;;;;;;1.30;0.60;;;14.30;94.00;;;;;;4997105;28;20055;-89
2020/12/23 06:00:09;;;;;;;2.70;0.75;;;14.30;93.90;;;;;;4997362;28;20149;-87
2020/12/23 06:02:59;;;;;;;2.20;0.85;;;14.20;94.10;;;;;;4996679;28;20134;-88
2020/12/23 06:05:29;;;;;;;2.55;0.80;;;14.20;94.10;;;;;;4983634;28;20419;-87
2020/12/23 06:08:02;;;;;;;2.05;0.80;;;14.20;94.20;;;;;;4996042;28;20051;-89
2020/12/23 06:10:35;;;;;;;1.60;0.65;;;14.20;94.20;;;;;;4996976;28;20050;-87
2020/12/23 06:13:11;;;;;;;1.80;0.73;;;14.20;94.20;;;;;;5001995;28;20049;-87
2020/12/23 06:15:41;;;;;;;2.97;0.77;;;14.20;94.10;;;;;;5007183;28;20046;-89
2020/12/23 06:18:17;;;;;;;3.55;0.80;;;14.20;94.00;;;;;;5007689;28;20050;-89
2020/12/23 06:20:46;;;;;;;1.73;0.82;;;14.20;94.00;;;;;;5000151;28;20519;-90
2020/12/23 06:23:26;;;;;;;2.22;0.98;;;14.20;94.00;;;;;;4996736;28;20050;-87
2020/12/23 06:25:53;;;;;;;1.77;0.73;;;14.30;94.00;;;;;;4996725;28;20124;-88
2020/12/23 06:28:23;;;;;;;2.88;1.10;;;14.20;94.20;;;;;;4996565;28;20114;-88
2020/12/23 06:30:52;;;;;;;2.53;0.93;;;14.10;94.40;;;;;;4996198;28;20050;-90
2020/12/23 06:33:20;;;;;;;2.03;0.90;;;14.10;94.50;;;;;;4996735;28;20499;-89
2020/12/23 06:35:48;;;;;;;1.88;0.80;;;14.00;94.50;;;;;;4996732;28;20137;-92
2020/12/23 06:38:22;;;;;;;1.92;0.80;;;14.00;94.50;;;;;;4996457;28;20137;-91
2020/12/23 06:41:07;;;;;;;2.40;0.80;;;14.00;94.40;;;;;;4996705;28;20054;-92
2020/12/23 06:43:57;;;;;;;1.75;0.60;;;14.00;94.50;;;;;;5009796;28;20104;-86
2020/12/23 06:46:24;;;;;;;2.85;0.95;;;14.10;94.30;;;;;;5010683;28;20353;-91
2020/12/23 06:48:51;;;;;;;2.70;0.90;;;14.10;94.20;;;;;;4988721;28;20125;-90
2020/12/23 06:51:41;;;;;;;3.00;1.40;;;14.10;94.20;;;;;;4994653;28;20129;-90
2020/12/23 06:54:08;;;;;;;3.08;1.10;;;14.10;94.20;;;;;;4990114;28;20133;-91
2020/12/23 06:56:45;;;;;;;3.22;1.00;;;14.10;94.10;;;;;;4995900;28;20109;-90
2020/12/23 06:59:57;;;;;;;3.53;0.95;;;14.00;94.10;;;;;;4994919;28;20134;-91
2020/12/23 07:02:26;;;;;;;3.35;0.93;;;14.10;94.10;;;;;;4933207;29;20134;-90
2020/12/23 07:04:55;;;;;;;2.60;1.08;;;14.10;94.00;;;;;;4982830;28;20134;-91
2020/12/23 07:07:36;;;;;;;2.53;0.90;;;14.10;94.10;;;;;;4995750;28;20062;-89
2020/12/23 07:10:10;;;;;;;3.58;1.10;;;14.20;94.10;;;;;;4994496;28;20053;-89
2020/12/23 07:12:42;;;;;;;2.20;1.00;;;14.20;94.00;;;;;;4995773;28;20141;-91
2020/12/23 07:15:10;;;;;;;2.20;1.00;;;14.10;94.00;;;;;;4993937;28;20121;-90
2020/12/23 07:17:41;;;;;;;2.45;1.00;;;14.00;94.10;;;;;;4995918;28;20050;-89
2020/12/23 07:20:08;;;;;;;2.20;0.90;;;14.00;94.30;;;;;;4995356;28;20145;-90
2020/12/23 07:22:36;;;;;;;3.38;1.08;;;13.90;94.40;;;;;;4998423;28;20111;-90
2020/12/23 07:25:05;;;;;;;2.97;1.00;;;13.90;94.40;;;;;;4986609;28;20122;-90
2020/12/23 07:27:33;;;;;;;2.75;1.00;;;13.90;94.50;;;;;;4994035;28;20141;-87
2020/12/23 07:30:08;;;;;;;2.20;1.10;;;13.90;94.50;;;;;;4992849;28;20137;-86
2020/12/23 07:32:35;;;;;;;;;;;13.80;94.50;;;;;;4995725;28;20137;-85
2020/12/23 07:35:01;;;;;;;3.55;1.00;;;13.80;94.50;;;;;;4981408;28;19947;-86
2020/12/23 07:37:39;;;;;;;2.80;1.10;;;13.90;94.30;;;;;;4994262;28;20141;-86
2020/12/23 07:40:14;;;;;;;2.53;0.93;;;13.90;94.30;;;;;;4994667;28;20134;-86
2020/12/23 07:42:47;;;;;;;3.38;1.05;;;14.00;94.10;;;;;;4994188;28;20487;-85
2020/12/23 07:45:14;;;;;;;2.33;1.00;;;13.90;94.00;;;;;;4997352;28;20137;-89
2020/12/23 07:47:41;;;;;;;3.33;1.20;;;14.00;94.10;;;;;;5002943;28;20117;-89
2020/12/23 07:50:07;;;;;;;3.60;1.15;;;14.00;93.70;;;;;;5003047;28;20062;-89
2020/12/23 07:52:34;;;;;;;2.67;1.20;;;13.90;93.80;;;;;;4993808;28;20054;-88
2020/12/23 07:55:14;;;;;;;2.95;1.02;;;14.00;93.70;;;;;;4986567;28;20042;-86
2020/12/23 07:57:41;;;;;;;3.13;1.20;;;14.00;93.60;;;;;;4991116;28;20146;-88
2020/12/23 08:00:10;;;;;;;2.72;1.00;;;14.10;93.50;;;;;;5003004;28;20125;-87
2020/12/23 08:02:38;;;;;;;2.60;1.08;;;14.10;93.40;;;;;;4994419;28;20129;-90
2020/12/23 08:05:06;;;;;;;3.75;1.20;;;14.10;93.40;;;;;;4993823;28;20137;-86
2020/12/23 08:07:32;;;;;;;2.85;1.17;;;14.00;93.50;;;;;;4995154;28;20054;-86
2020/12/23 08:10:08;;;;;;;2.92;1.00;;;14.20;93.40;;;;;;4992603;28;20053;-86
2020/12/23 08:12:36;;;;;;;2.35;1.00;;;14.00;93.50;;;;;;4993458;28;20096;-90
2020/12/23 08:15:10;;;;;;;2.70;1.13;;;14.00;93.60;;;;;;4995325;28;20046;-90
2020/12/23 08:17:36;;;;;;;2.33;0.90;;;14.10;93.70;;;;;;5009988;28;20492;-91
2020/12/23 08:20:12;;;;;;;2.35;0.95;;;14.10;93.50;;;;;;4986029;28;20137;-91
2020/12/23 08:22:41;;;;;;;2.40;1.00;;;14.20;93.40;;;;;;4994708;28;20109;-92
2020/12/23 08:25:13;;;;;;;2.58;1.00;;;14.20;93.30;;;;;;4995694;28;20113;-87
2020/12/23 08:27:43;;;;;;;3.55;1.15;;;14.20;93.30;;;;;;4995193;28;20133;-87
2020/12/23 08:30:13;;;;;;;2.83;1.10;;;14.30;93.20;;;;;;4984154;28;20122;-88
2020/12/23 08:32:45;;;;;;;2.50;1.00;;;14.20;93.20;;;;;;4993928;28;20118;-86
2020/12/23 08:35:13;;;;;;;2.92;1.00;;;14.30;93.00;;;;;;4999926;28;20050;-87
2020/12/23 08:37:40;;;;;;;2.00;0.80;;;14.30;92.80;;;;;;4994220;28;20058;-88
2020/12/23 08:40:08;;;;;;;2.00;1.00;;;14.30;92.80;;;;;;4983284;28;20129;-89
2020/12/23 08:42:36;;;;;;;2.65;0.90;;;14.30;92.70;;;;;;4994525;28;20511;-88
2020/12/23 08:45:05;;;;;;;3.58;1.17;;;14.40;92.70;;;;;;4994305;28;20127;-88
2020/12/23 08:47:33;;;;;;;2.22;0.90;;;14.40;92.90;;;;;;4981930;28;20058;-88
2020/12/23 08:50:01;;;;;;;2.17;0.90;;;14.50;92.90;;;;;;4995637;28;20046;-88
2020/12/23 08:52:29;;;;;;;2.10;0.93;;;14.50;92.70;;;;;;4995898;28;20082;-88
2020/12/23 08:54:56;;;;;;;2.30;1.00;;;14.50;92.60;;;;;;4995658;28;20466;-89
2020/12/23 08:57:28;;;;;;;3.25;1.80;;;14.50;92.80;;;;;;4996127;28;20480;-88
2020/12/23 08:59:55;;;;;;;3.72;1.70;;;14.50;92.60;;;;;;4994755;28;20050;-89
2020/12/23 09:02:24;;;;;;;2.67;1.40;;;14.50;92.60;;;;;;4994884;28;20141;-89
2020/12/23 09:04:50;;;;;;;3.10;1.60;;;14.40;92.60;;;;;;4994620;28;20408;-90
2020/12/23 09:07:21;;;;;;;3.17;1.42;;;14.40;92.70;;;;;;4994782;28;20085;-88
2020/12/23 09:09:50;;;;;;;3.17;1.40;;;14.50;92.80;;;;;;4994204;28;20051;-89
2020/12/23 09:12:21;;;;;;;2.85;1.17;;;14.40;92.80;;;;;;4995060;28;20042;-90
2020/12/23 09:14:48;;;;;;;2.80;1.00;;;14.40;92.80;;;;;;4977108;28;20116;-89
2020/12/23 09:17:24;;;;;;;2.95;0.98;;;14.40;92.50;;;;;;4994134;28;20062;-89
2020/12/23 09:20:00;;;;;;;2.30;0.93;;;14.40;92.70;;;;;;4993278;28;20546;-89
2020/12/23 09:22:35;;;;;;;4.70;1.15;;;14.40;92.50;;;;;;4996885;28;20407;-89
2020/12/23 09:25:22;;;;;;;2.30;0.93;;;14.50;92.40;;;;;;4997779;28;20615;-92
2020/12/23 09:27:51;;;;;;;3.03;1.08;;;14.50;92.40;;;;;;4976804;28;20077;-87
2020/12/23 09:30:36;;;;;;;2.50;1.02;;;14.50;92.30;;;;;;4990043;28;20129;-87
2020/12/23 09:33:06;;;;;;;2.72;1.10;;;14.40;92.40;;;;;;4994676;28;20121;-87
2020/12/23 09:35:34;;;;;;;2.72;1.10;;;14.50;92.30;;;;;;4994890;28;20054;-87
2020/12/23 09:38:12;;;;;;;3.05;1.27;;;14.50;92.20;;;;;;4994607;28;20058;-87
2020/12/23 09:40:42;;;;;;;3.17;1.10;;;14.60;92.40;;;;;;4993242;28;20053;-87
2020/12/23 09:43:14;;;;;;;2.83;1.10;;;14.50;92.20;;;;;;4993947;28;20205;-87
2020/12/23 09:45:42;;;;;;;2.72;1.23;;;14.50;92.10;;;;;;4975977;28;20050;-83
2020/12/23 09:48:09;;;;;;;2.58;1.20;;;14.60;92.00;;;;;;4993445;28;20042;-83
2020/12/23 09:50:37;;;;;;;3.42;1.20;;;14.60;92.20;;;;;;4969230;28;20461;-83
2020/12/23 09:53:03;;;;;;;3.00;1.30;;;14.60;92.10;;;;;;4995620;28;20508;-82
2020/12/23 09:55:31;;;;;;;2.95;1.20;;;14.60;92.00;;;;;;4991296;28;20092;-83
2020/12/23 09:57:58;;;;;;;4.13;1.30;;;14.70;91.90;;;;;;4978506;28;20092;-82
2020/12/23 10:00:27;;;;;;;3.85;1.30;;;14.70;91.90;;;;;;4994356;28;20054;-82
2020/12/23 10:02:53;;;;;;;3.17;1.30;;;14.70;91.90;;;;;;4986732;28;20058;-82
2020/12/23 10:05:21;;;;;;;4.93;1.63;;;14.70;92.00;;;;;;4994138;28;20049;-83
2020/12/23 10:07:48;;;;;;;2.83;1.25;;;14.70;92.10;;;;;;4992914;28;20152;-83
2020/12/23 10:10:15;;;;;;;2.83;1.20;;;14.80;91.70;;;;;;4992405;28;20141;-82
2020/12/23 10:12:41;;;;;;;2.33;1.08;;;14.90;91.60;;;;;;4991880;28;20647;-83
2020/12/23 10:15:08;;;;;;;3.05;1.20;;;14.90;91.50;;;;;;4990868;28;20177;-83
2020/12/23 10:17:35;;;;;;;3.67;1.10;;;15.00;91.40;;;;;;4994797;28;20439;-83
2020/12/23 10:20:02;;;;;;;2.25;0.90;;;15.00;91.10;;;;;;4993482;28;20046;-83
2020/12/23 10:22:30;;;;;;;3.22;0.90;;;15.20;91.00;;;;;;4993030;28;20137;-83
2020/12/23 10:24:57;;;;;;;2.85;1.10;;;15.20;90.90;;;;;;5001714;28;20084;-83
2020/12/23 10:27:24;;;;;;;2.20;0.80;;;15.20;90.70;;;;;;4983586;28;20129;-84
2020/12/23 10:29:50;;;;;;;3.38;1.00;;;15.30;90.70;;;;;;4991956;28;20046;-83
2020/12/23 10:32:18;;;;;;;2.33;0.88;;;15.20;90.50;;;;;;4992599;28;20567;-86
2020/12/23 10:34:45;;;;;;;2.20;0.90;;;15.30;90.40;;;;;;4990747;28;20165;-86
2020/12/23 10:37:12;;;;;;;2.33;0.90;;;15.30;90.40;;;;;;4993134;28;20082;-83
2020/12/23 10:39:39;;;;;;;2.33;1.00;;;15.40;90.10;;;;;;4992797;28;20580;-83
2020/12/23 10:42:06;;;;;;;1.63;0.70;;;15.40;90.10;;;;;;4992994;28;20046;-85
2020/12/23 10:44:32;;;;;;;2.25;0.95;;;15.50;90.30;;;;;;4993382;28;20141;-83
2020/12/23 10:47:00;;;;;;;2.58;1.02;;;15.50;89.90;;;;;;4992444;28;20133;-83
2020/12/23 10:49:28;;;;;;;2.08;0.90;;;15.60;89.50;;;;;;4993852;28;20128;-87
2020/12/23 10:51:57;;;;;;;2.25;0.93;;;15.60;89.10;;;;;;4993388;28;20066;-90
2020/12/23 10:54:24;;;;;;;3.85;0.90;;;15.70;88.90;;;;;;4993987;28;20090;-87
2020/12/23 10:56:52;;;;;;;2.65;1.08;;;15.70;89.00;;;;;;4993780;28;20141;-88
2020/12/23 10:59:19;;;;;;;2.45;1.00;;;15.70;88.40;;;;;;4994206;28;20141;-88
2020/12/23 11:01:51;;;;;;;2.30;0.90;;;15.80;88.00;;;;;;4993957;28;20407;-88
2020/12/23 11:04:18;;;;;;;2.22;0.90;;;15.90;88.10;;;;;;4998080;28;20544;-86
2020/12/23 11:06:47;;;;;;;2.50;0.90;;;16.00;87.80;;;;;;5000670;28;20034;-88
2020/12/23 11:09:14;;;;;;;2.28;0.90;;;16.00;87.40;;;;;;5003088;28;20586;-88
2020/12/23 11:11:40;;;;;;;2.92;0.90;;;16.10;87.00;;;;;;4994252;28;20133;-87
2020/12/23 11:14:08;;;;;;;2.42;1.00;;;16.00;87.60;;;;;;4995159;28;20054;-87
2020/12/23 11:16:34;;;;;;;2.45;1.20;;;16.20;87.00;;;;;;4993440;28;20118;-87
2020/12/23 11:19:01;;;;;;;2.90;0.98;;;16.20;87.30;;;;;;4995362;28;20054;-87
2020/12/23 11:21:28;;;;;;;2.88;1.33;;;16.30;86.30;;;;;;4994097;28;20141;-88
2020/12/23 11:23:54;;;;;;;2.17;1.00;;;16.30;85.00;;;;;;5001825;28;20118;-89
2020/12/23 11:26:22;;;;;;;2.30;1.00;;;16.30;86.10;;;;;;4972737;28;20579;-89
2020/12/23 11:28:49;;;;;;;2.38;0.90;;;16.20;86.80;;;;;;4992106;28;20050;-87
2020/12/23 11:31:17;;;;;;;3.00;1.02;;;16.30;86.20;;;;;;4985940;28;20057;-90
2020/12/23 11:33:44;;;;;;;2.33;1.00;;;16.30;86.00;;;;;;4962528;28;20254;-86
2020/12/23 11:36:11;;;;;;;2.05;0.80;;;16.30;86.50;;;;;;4992226;28;20124;-86
2020/12/23 11:38:37;;;;;;;1.80;0.88;;;16.30;85.30;;;;;;4991526;28;20132;-87
2020/12/23 11:41:07;;;;;;;2.63;0.98;;;16.30;85.10;;;;;;4991950;28;20140;-86
2020/12/23 11:43:34;;;;;;;3.20;1.00;;;16.20;85.10;;;;;;4992796;28;20138;-87
2020/12/23 11:46:02;;;;;;;2.92;1.20;;;16.10;85.90;;;;;;4991403;28;20546;-87
2020/12/23 11:48:30;;;;;;;3.65;1.13;;;16.20;84.70;;;;;;4991437;28;20511;-87
2020/12/23 11:50:57;;;;;;;3.65;0.90;;;16.30;84.70;;;;;;4991193;28;20140;-75
2020/12/23 11:53:24;;;;;;;2.80;1.20;;;16.30;89.00;;;;;;4990530;28;20130;-74
2020/12/23 11:55:51;;;;;;;3.72;1.15;;;16.40;85.10;;;;;;4990635;28;20083;-74
2020/12/23 11:58:18;;;;;;;2.20;0.90;;;16.40;85.30;;;;;;4991170;28;20092;-92
2020/12/23 12:00:46;;;;;;;1.92;0.80;;;16.40;83.60;;;;;;4991446;28;20108;-94
2020/12/23 12:03:12;;;;;;;2.33;0.93;;;16.40;82.00;;;;;;4993178;28;20058;-89
2020/12/23 12:05:40;;;;;;;3.17;1.20;;;16.40;83.10;;;;;;4992347;28;20185;-87
2020/12/23 12:08:08;;;;;;;3.03;1.10;;;16.40;82.90;;;;;;4993440;28;20141;-84
2020/12/23 12:10:34;;;;;;;1.83;0.90;;;16.50;83.30;;;;;;4991715;28;20053;-86
2020/12/23 12:13:02;;;;;;;2.70;1.08;;;16.40;83.30;;;;;;4991642;28;20153;-90
2020/12/23 12:15:29;;;;;;;2.97;1.17;;;16.40;83.00;;;;;;4991986;28;20460;-89
2020/12/23 12:17:55;;;;;;;2.42;1.00;;;16.30;83.50;;;;;;4991490;28;20133;-89
2020/12/23 12:20:22;;;;;;;3.15;1.38;;;16.30;83.00;;;;;;4991496;28;20385;-86
2020/12/23 12:22:49;;;;;;;2.65;1.15;;;16.30;83.30;;;;;;4991004;28;20142;-88
2020/12/23 12:25:17;;;;;;;2.90;1.20;;;16.30;83.40;;;;;;4991294;28;20065;-85
2020/12/23 12:27:44;;;;;;;2.85;1.20;;;16.30;83.20;;;;;;4989865;28;20049;-86
2020/12/23 12:30:10;;;;;;;2.42;1.00;;;16.30;83.20;;;;;;4993224;28;20054;-89
2020/12/23 12:32:37;;;;;;;3.25;1.15;;;16.30;83.40;;;;;;5003629;28;20070;-82
2020/12/23 12:35:04;;;;;;;3.15;1.10;;;16.40;83.10;;;;;;4991870;28;20221;-86
2020/12/23 12:37:30;;;;;;;2.72;1.05;;;16.40;82.80;;;;;;4992328;28;20070;-85
2020/12/23 12:39:58;;;;;;;5.57;2.58;;;16.40;82.70;;;;;;4995217;28;20115;-89
2020/12/23 12:42:25;;;;;;;9.77;4.53;;;16.30;82.70;;;;;;4979175;28;20050;-96
2020/12/23 12:44:52;;;;;;;6.13;1.70;;;16.40;82.90;;;;;;5003433;28;20094;-92
2020/12/23 12:47:19;;;;;;;2.45;1.10;;;16.40;82.80;;;;;;5013084;28;20066;-89
2020/12/23 12:49:45;;;;;;;3.38;1.10;;;16.40;82.50;;;;;;4992860;28;20046;-91
2020/12/23 12:52:12;;;;;;;3.33;1.10;;;16.40;81.50;;;;;;4996217;28;20563;-86
2020/12/23 12:54:39;;;;;;;2.80;1.30;;;16.40;82.20;;;;;;4995334;28;20106;-91